sensor_id;sensor_type;location;lat;lon;timestamp;P1;durP1;ratioP1;P2;durP2;ratioP2
77602;SDS011;66771;52.434;17.056;2023-02-12T00:01:23;23.90;;;8.40;;
77602;SDS011;66771;52.434;17.056;2023-02-12T00:03:50;20.60;;;7.80;;
77602;SDS011;66771;52.434;17.056;2023-02-12T00:06:17;29.40;;;8.40;;
77602;SDS011;66771;52.434;17.056;2023-02-12T00:08:47;22.70;;;9.10;;
77602;SDS011;66771;52.434;17.056;2023-02-12T00:11:16;34.10;;;11.00;;
77602;SDS011;66771;52.434;17.056;2023-02-12T00:13:45;27.30;;;10.20;;
77602;SDS011;66771;52.434;17.056;2023-02-12T00:16:13;24.60;;;9.70;;
77602;SDS011;66771;52.434;17.056;2023-02-12T00:18:42;25.70;;;8.10;;
77602;SDS011;66771;52.434;17.056;2023-02-12T00:21:10;24.10;;;7.20;;
77602;SDS011;66771;52.434;17.056;2023-02-12T00:23:39;18.90;;;6.50;;
77602;SDS011;66771;52.434;17.056;2023-02-12T00:26:10;23.70;;;7.50;;
77602;SDS011;66771;52.434;17.056;2023-02-12T00:28:40;23.30;;;8.00;;
77602;SDS011;66771;52.434;17.056;2023-02-12T00:31:11;16.70;;;6.10;;
77602;SDS011;66771;52.434;17.056;2023-02-12T00:33:40;24.90;;;7.50;;
77602;SDS011;66771;52.434;17.056;2023-02-12T00:36:08;25.80;;;7.90;;
77602;SDS011;66771;52.434;17.056;2023-02-12T00:38:39;22.30;;;7.20;;
77602;SDS011;66771;52.434;17.056;2023-02-12T00:41:06;24.10;;;7.60;;
77602;SDS011;66771;52.434;17.056;2023-02-12T00:43:33;26.20;;;8.10;;
77602;SDS011;66771;52.434;17.056;2023-02-12T00:46:00;24.90;;;8.40;;
77602;SDS011;66771;52.434;17.056;2023-02-12T00:48:27;18.10;;;7.30;;
77602;SDS011;66771;52.434;17.056;2023-02-12T00:50:55;23.20;;;7.10;;
77602;SDS011;66771;52.434;17.056;2023-02-12T00:53:22;18.90;;;6.90;;
77602;SDS011;66771;52.434;17.056;2023-02-12T00:55:48;17.90;;;6.70;;
77602;SDS011;66771;52.434;17.056;2023-02-12T00:58:15;20.70;;;6.30;;
77602;SDS011;66771;52.434;17.056;2023-02-12T01:00:42;30.20;;;8.20;;
77602;SDS011;66771;52.434;17.056;2023-02-12T01:03:09;24.70;;;7.00;;
77602;SDS011;66771;52.434;17.056;2023-02-12T01:05:36;16.90;;;6.30;;
77602;SDS011;66771;52.434;17.056;2023-02-12T01:08:03;27.20;;;7.80;;
77602;SDS011;66771;52.434;17.056;2023-02-12T01:10:30;26.90;;;6.50;;
77602;SDS011;66771;52.434;17.056;2023-02-12T01:12:57;21.40;;;6.20;;
77602;SDS011;66771;52.434;17.056;2023-02-12T01:15:24;25.00;;;6.60;;
77602;SDS011;66771;52.434;17.056;2023-02-12T01:17:51;28.20;;;7.30;;
77602;SDS011;66771;52.434;17.056;2023-02-12T01:20:20;26.50;;;7.00;;
77602;SDS011;66771;52.434;17.056;2023-02-12T01:22:48;20.90;;;7.10;;
77602;SDS011;66771;52.434;17.056;2023-02-12T01:25:16;23.00;;;6.40;;
77602;SDS011;66771;52.434;17.056;2023-02-12T01:27:43;18.70;;;5.60;;
77602;SDS011;66771;52.434;17.056;2023-02-12T01:30:13;22.80;;;7.00;;
77602;SDS011;66771;52.434;17.056;2023-02-12T01:32:41;17.50;;;6.30;;
77602;SDS011;66771;52.434;17.056;2023-02-12T01:35:10;21.20;;;5.90;;
77602;SDS011;66771;52.434;17.056;2023-02-12T01:37:37;15.50;;;5.90;;
77602;SDS011;66771;52.434;17.056;2023-02-12T01:40:05;18.90;;;6.30;;
77602;SDS011;66771;52.434;17.056;2023-02-12T01:42:33;20.20;;;6.20;;
77602;SDS011;66771;52.434;17.056;2023-02-12T01:47:40;15.30;;;5.60;;
77602;SDS011;66771;52.434;17.056;2023-02-12T01:50:09;22.60;;;6.70;;
77602;SDS011;66771;52.434;17.056;2023-02-12T01:52:39;23.10;;;5.70;;
77602;SDS011;66771;52.434;17.056;2023-02-12T01:55:10;13.50;;;5.00;;
77602;SDS011;66771;52.434;17.056;2023-02-12T01:57:39;15.80;;;5.40;;
77602;SDS011;66771;52.434;17.056;2023-02-12T02:00:10;25.10;;;5.40;;
77602;SDS011;66771;52.434;17.056;2023-02-12T02:02:43;20.10;;;6.10;;
77602;SDS011;66771;52.434;17.056;2023-02-12T02:05:14;19.40;;;6.40;;
77602;SDS011;66771;52.434;17.056;2023-02-12T02:07:49;19.20;;;6.20;;
77602;SDS011;66771;52.434;17.056;2023-02-12T02:10:16;21.50;;;6.40;;
77602;SDS011;66771;52.434;17.056;2023-02-12T02:12:43;28.60;;;6.30;;
77602;SDS011;66771;52.434;17.056;2023-02-12T02:15:28;15.40;;;5.80;;
77602;SDS011;66771;52.434;17.056;2023-02-12T02:18:01;18.90;;;6.60;;
77602;SDS011;66771;52.434;17.056;2023-02-12T02:31:57;18.00;;;5.70;;
77602;SDS011;66771;52.434;17.056;2023-02-12T02:34:51;21.00;;;6.50;;
77602;SDS011;66771;52.434;17.056;2023-02-12T02:40:01;16.40;;;5.20;;
77602;SDS011;66771;52.434;17.056;2023-02-12T02:45:48;19.30;;;5.80;;
77602;SDS011;66771;52.434;17.056;2023-02-12T02:48:23;17.70;;;5.70;;
77602;SDS011;66771;52.434;17.056;2023-02-12T02:51:08;20.50;;;6.20;;
77602;SDS011;66771;52.434;17.056;2023-02-12T02:53:45;18.10;;;5.30;;
77602;SDS011;66771;52.434;17.056;2023-02-12T02:56:18;22.30;;;6.50;;
77602;SDS011;66771;52.434;17.056;2023-02-12T02:58:51;22.80;;;7.00;;
77602;SDS011;66771;52.434;17.056;2023-02-12T03:04:11;19.20;;;5.70;;
77602;SDS011;66771;52.434;17.056;2023-02-12T03:09:17;19.70;;;6.00;;
77602;SDS011;66771;52.434;17.056;2023-02-12T03:11:48;14.80;;;5.50;;
77602;SDS011;66771;52.434;17.056;2023-02-12T03:14:24;12.60;;;5.10;;
77602;SDS011;66771;52.434;17.056;2023-02-12T03:20:06;10.30;;;4.10;;
77602;SDS011;66771;52.434;17.056;2023-02-12T03:22:57;17.10;;;5.30;;
77602;SDS011;66771;52.434;17.056;2023-02-12T03:25:34;16.90;;;4.50;;
77602;SDS011;66771;52.434;17.056;2023-02-12T03:28:15;17.60;;;4.80;;
77602;SDS011;66771;52.434;17.056;2023-02-12T03:33:45;20.50;;;5.30;;
77602;SDS011;66771;52.434;17.056;2023-02-12T03:39:24;19.70;;;5.90;;
77602;SDS011;66771;52.434;17.056;2023-02-12T03:42:02;16.50;;;4.70;;
77602;SDS011;66771;52.434;17.056;2023-02-12T03:47:26;15.70;;;5.00;;
77602;SDS011;66771;52.434;17.056;2023-02-12T03:52:57;15.00;;;4.40;;
77602;SDS011;66771;52.434;17.056;2023-02-12T03:55:24;16.00;;;4.90;;
77602;SDS011;66771;52.434;17.056;2023-02-12T03:57:54;13.70;;;4.10;;
77602;SDS011;66771;52.434;17.056;2023-02-12T04:00:26;17.10;;;5.00;;
77602;SDS011;66771;52.434;17.056;2023-02-12T04:02:53;20.50;;;6.00;;
77602;SDS011;66771;52.434;17.056;2023-02-12T04:05:23;17.00;;;4.80;;
77602;SDS011;66771;52.434;17.056;2023-02-12T04:07:53;18.40;;;6.00;;
77602;SDS011;66771;52.434;17.056;2023-02-12T04:10:24;17.30;;;6.60;;
77602;SDS011;66771;52.434;17.056;2023-02-12T04:21:06;42.40;;;12.90;;
77602;SDS011;66771;52.434;17.056;2023-02-12T04:24:12;30.90;;;12.30;;
77602;SDS011;66771;52.434;17.056;2023-02-12T04:29:49;26.20;;;12.60;;
77602;SDS011;66771;52.434;17.056;2023-02-12T04:37:45;39.70;;;15.00;;
77602;SDS011;66771;52.434;17.056;2023-02-12T04:40:20;34.00;;;15.60;;
77602;SDS011;66771;52.434;17.056;2023-02-12T04:42:49;36.90;;;15.30;;
77602;SDS011;66771;52.434;17.056;2023-02-12T04:45:25;45.20;;;16.60;;
77602;SDS011;66771;52.434;17.056;2023-02-12T04:47:54;37.80;;;15.10;;
77602;SDS011;66771;52.434;17.056;2023-02-12T04:50:22;39.10;;;15.50;;
77602;SDS011;66771;52.434;17.056;2023-02-12T04:52:49;34.30;;;14.00;;
77602;SDS011;66771;52.434;17.056;2023-02-12T04:55:16;36.70;;;14.70;;
77602;SDS011;66771;52.434;17.056;2023-02-12T04:57:43;34.80;;;14.90;;
77602;SDS011;66771;52.434;17.056;2023-02-12T05:00:11;45.30;;;15.10;;
77602;SDS011;66771;52.434;17.056;2023-02-12T05:02:40;44.20;;;15.60;;
77602;SDS011;66771;52.434;17.056;2023-02-12T05:05:07;31.70;;;14.00;;
77602;SDS011;66771;52.434;17.056;2023-02-12T05:07:38;37.30;;;13.60;;
77602;SDS011;66771;52.434;17.056;2023-02-12T05:10:05;31.00;;;14.00;;
77602;SDS011;66771;52.434;17.056;2023-02-12T05:12:34;36.70;;;13.00;;
77602;SDS011;66771;52.434;17.056;2023-02-12T05:15:00;23.10;;;9.90;;
77602;SDS011;66771;52.434;17.056;2023-02-12T05:17:27;20.60;;;9.90;;
77602;SDS011;66771;52.434;17.056;2023-02-12T05:19:54;21.90;;;9.70;;
77602;SDS011;66771;52.434;17.056;2023-02-12T05:22:21;17.50;;;8.10;;
77602;SDS011;66771;52.434;17.056;2023-02-12T05:24:48;20.50;;;9.20;;
77602;SDS011;66771;52.434;17.056;2023-02-12T05:27:16;24.30;;;8.80;;
77602;SDS011;66771;52.434;17.056;2023-02-12T05:29:42;20.10;;;7.90;;
77602;SDS011;66771;52.434;17.056;2023-02-12T05:32:09;16.90;;;7.00;;
77602;SDS011;66771;52.434;17.056;2023-02-12T05:34:36;16.50;;;8.10;;
77602;SDS011;66771;52.434;17.056;2023-02-12T05:37:03;17.80;;;8.10;;
77602;SDS011;66771;52.434;17.056;2023-02-12T05:39:30;15.20;;;7.50;;
77602;SDS011;66771;52.434;17.056;2023-02-12T05:41:57;17.80;;;8.40;;
77602;SDS011;66771;52.434;17.056;2023-02-12T05:44:24;20.80;;;8.30;;
77602;SDS011;66771;52.434;17.056;2023-02-12T05:46:51;16.00;;;7.90;;
77602;SDS011;66771;52.434;17.056;2023-02-12T05:49:18;13.80;;;7.30;;
77602;SDS011;66771;52.434;17.056;2023-02-12T05:51:44;12.20;;;7.00;;
77602;SDS011;66771;52.434;17.056;2023-02-12T05:54:11;18.80;;;7.60;;
77602;SDS011;66771;52.434;17.056;2023-02-12T05:56:42;21.90;;;8.70;;
77602;SDS011;66771;52.434;17.056;2023-02-12T05:59:14;17.80;;;9.00;;
77602;SDS011;66771;52.434;17.056;2023-02-12T06:01:44;18.40;;;8.80;;
77602;SDS011;66771;52.434;17.056;2023-02-12T06:04:13;23.20;;;8.30;;
77602;SDS011;66771;52.434;17.056;2023-02-12T06:06:42;19.00;;;7.60;;
77602;SDS011;66771;52.434;17.056;2023-02-12T06:09:11;20.40;;;8.20;;
77602;SDS011;66771;52.434;17.056;2023-02-12T06:11:39;20.10;;;8.10;;
77602;SDS011;66771;52.434;17.056;2023-02-12T06:14:07;16.80;;;7.60;;
77602;SDS011;66771;52.434;17.056;2023-02-12T06:16:36;18.40;;;8.50;;
77602;SDS011;66771;52.434;17.056;2023-02-12T06:19:03;16.60;;;8.70;;
77602;SDS011;66771;52.434;17.056;2023-02-12T06:21:31;23.80;;;9.10;;
77602;SDS011;66771;52.434;17.056;2023-02-12T06:23:59;17.80;;;8.30;;
77602;SDS011;66771;52.434;17.056;2023-02-12T06:26:25;16.10;;;7.60;;
77602;SDS011;66771;52.434;17.056;2023-02-12T06:28:52;16.60;;;7.80;;
77602;SDS011;66771;52.434;17.056;2023-02-12T06:31:22;24.20;;;9.80;;
77602;SDS011;66771;52.434;17.056;2023-02-12T06:33:49;22.30;;;9.40;;
77602;SDS011;66771;52.434;17.056;2023-02-12T06:36:18;23.10;;;9.30;;
77602;SDS011;66771;52.434;17.056;2023-02-12T06:38:45;24.90;;;9.50;;
77602;SDS011;66771;52.434;17.056;2023-02-12T06:41:13;30.10;;;12.00;;
77602;SDS011;66771;52.434;17.056;2023-02-12T06:43:40;29.10;;;11.80;;
77602;SDS011;66771;52.434;17.056;2023-02-12T06:46:08;23.50;;;10.10;;
77602;SDS011;66771;52.434;17.056;2023-02-12T06:48:36;28.50;;;11.80;;
77602;SDS011;66771;52.434;17.056;2023-02-12T06:51:07;26.50;;;13.30;;
77602;SDS011;66771;52.434;17.056;2023-02-12T06:53:37;32.60;;;14.70;;
77602;SDS011;66771;52.434;17.056;2023-02-12T06:56:07;30.80;;;14.30;;
77602;SDS011;66771;52.434;17.056;2023-02-12T06:58:39;30.40;;;14.40;;
77602;SDS011;66771;52.434;17.056;2023-02-12T07:01:10;29.10;;;13.30;;
77602;SDS011;66771;52.434;17.056;2023-02-12T07:03:45;24.50;;;13.50;;
77602;SDS011;66771;52.434;17.056;2023-02-12T07:06:14;28.40;;;13.60;;
77602;SDS011;66771;52.434;17.056;2023-02-12T07:08:42;34.20;;;15.50;;
77602;SDS011;66771;52.434;17.056;2023-02-12T07:11:11;32.00;;;15.50;;
77602;SDS011;66771;52.434;17.056;2023-02-12T07:13:39;36.50;;;14.70;;
77602;SDS011;66771;52.434;17.056;2023-02-12T07:16:10;32.50;;;13.10;;
77602;SDS011;66771;52.434;17.056;2023-02-12T07:18:40;32.50;;;13.60;;
77602;SDS011;66771;52.434;17.056;2023-02-12T07:21:10;35.60;;;13.40;;
77602;SDS011;66771;52.434;17.056;2023-02-12T07:23:39;29.90;;;11.70;;
77602;SDS011;66771;52.434;17.056;2023-02-12T07:26:07;33.10;;;11.60;;
77602;SDS011;66771;52.434;17.056;2023-02-12T07:28:36;25.00;;;11.30;;
77602;SDS011;66771;52.434;17.056;2023-02-12T07:31:08;27.60;;;10.60;;
77602;SDS011;66771;52.434;17.056;2023-02-12T07:33:36;24.00;;;10.90;;
77602;SDS011;66771;52.434;17.056;2023-02-12T07:36:04;21.60;;;9.80;;
77602;SDS011;66771;52.434;17.056;2023-02-12T07:38:35;27.30;;;11.40;;
77602;SDS011;66771;52.434;17.056;2023-02-12T07:41:09;24.50;;;11.40;;
77602;SDS011;66771;52.434;17.056;2023-02-12T07:43:41;25.80;;;11.00;;
77602;SDS011;66771;52.434;17.056;2023-02-12T07:46:14;25.20;;;10.80;;
77602;SDS011;66771;52.434;17.056;2023-02-12T07:48:46;20.50;;;11.10;;
77602;SDS011;66771;52.434;17.056;2023-02-12T07:51:14;19.30;;;9.40;;
77602;SDS011;66771;52.434;17.056;2023-02-12T07:53:47;27.30;;;10.30;;
77602;SDS011;66771;52.434;17.056;2023-02-12T07:56:15;21.90;;;9.60;;
77602;SDS011;66771;52.434;17.056;2023-02-12T07:58:45;18.30;;;9.50;;
77602;SDS011;66771;52.434;17.056;2023-02-12T08:03:48;21.30;;;10.30;;
77602;SDS011;66771;52.434;17.056;2023-02-12T08:06:17;20.40;;;11.00;;
77602;SDS011;66771;52.434;17.056;2023-02-12T08:08:46;18.50;;;9.40;;
77602;SDS011;66771;52.434;17.056;2023-02-12T08:11:13;23.30;;;10.80;;
77602;SDS011;66771;52.434;17.056;2023-02-12T08:13:43;20.80;;;11.20;;
77602;SDS011;66771;52.434;17.056;2023-02-12T08:16:11;23.70;;;12.10;;
77602;SDS011;66771;52.434;17.056;2023-02-12T08:18:40;24.10;;;12.50;;
77602;SDS011;66771;52.434;17.056;2023-02-12T08:21:09;29.90;;;12.40;;
77602;SDS011;66771;52.434;17.056;2023-02-12T08:23:37;23.70;;;12.10;;
77602;SDS011;66771;52.434;17.056;2023-02-12T08:26:18;21.70;;;12.40;;
77602;SDS011;66771;52.434;17.056;2023-02-12T08:28:46;24.50;;;11.90;;
77602;SDS011;66771;52.434;17.056;2023-02-12T08:31:22;21.80;;;12.30;;
77602;SDS011;66771;52.434;17.056;2023-02-12T08:33:53;24.70;;;12.10;;
77602;SDS011;66771;52.434;17.056;2023-02-12T08:36:25;27.80;;;12.90;;
77602;SDS011;66771;52.434;17.056;2023-02-12T08:39:09;27.90;;;13.20;;
77602;SDS011;66771;52.434;17.056;2023-02-12T08:41:37;27.30;;;12.50;;
77602;SDS011;66771;52.434;17.056;2023-02-12T08:44:04;22.00;;;12.10;;
77602;SDS011;66771;52.434;17.056;2023-02-12T08:46:32;20.40;;;10.90;;
77602;SDS011;66771;52.434;17.056;2023-02-12T08:49:02;16.50;;;10.50;;
77602;SDS011;66771;52.434;17.056;2023-02-12T08:51:36;20.50;;;11.50;;
77602;SDS011;66771;52.434;17.056;2023-02-12T08:54:05;19.70;;;10.70;;
77602;SDS011;66771;52.434;17.056;2023-02-12T08:56:38;19.30;;;10.60;;
77602;SDS011;66771;52.434;17.056;2023-02-12T08:59:06;22.30;;;10.60;;
77602;SDS011;66771;52.434;17.056;2023-02-12T09:01:35;25.10;;;11.20;;
77602;SDS011;66771;52.434;17.056;2023-02-12T09:07:06;19.20;;;10.30;;
77602;SDS011;66771;52.434;17.056;2023-02-12T09:09:59;21.60;;;10.90;;
77602;SDS011;66771;52.434;17.056;2023-02-12T09:15:36;25.50;;;13.30;;
77602;SDS011;66771;52.434;17.056;2023-02-12T09:18:06;25.70;;;13.10;;
77602;SDS011;66771;52.434;17.056;2023-02-12T09:20:33;27.00;;;13.20;;
77602;SDS011;66771;52.434;17.056;2023-02-12T09:23:04;21.40;;;12.50;;
77602;SDS011;66771;52.434;17.056;2023-02-12T09:25:33;24.00;;;13.00;;
77602;SDS011;66771;52.434;17.056;2023-02-12T09:28:03;28.30;;;13.90;;
77602;SDS011;66771;52.434;17.056;2023-02-12T09:30:39;19.90;;;13.00;;
77602;SDS011;66771;52.434;17.056;2023-02-12T09:33:06;24.20;;;12.80;;
77602;SDS011;66771;52.434;17.056;2023-02-12T09:35:36;23.80;;;11.40;;
77602;SDS011;66771;52.434;17.056;2023-02-12T09:38:09;18.20;;;11.00;;
77602;SDS011;66771;52.434;17.056;2023-02-12T09:49:14;23.90;;;12.10;;
77602;SDS011;66771;52.434;17.056;2023-02-12T09:51:54;24.00;;;12.20;;
77602;SDS011;66771;52.434;17.056;2023-02-12T09:54:22;25.50;;;13.10;;
77602;SDS011;66771;52.434;17.056;2023-02-12T09:56:57;24.00;;;10.30;;
77602;SDS011;66771;52.434;17.056;2023-02-12T09:59:34;28.60;;;12.50;;
77602;SDS011;66771;52.434;17.056;2023-02-12T10:02:14;23.40;;;11.70;;
77602;SDS011;66771;52.434;17.056;2023-02-12T10:04:45;30.20;;;14.40;;
77602;SDS011;66771;52.434;17.056;2023-02-12T10:12:26;25.10;;;10.90;;
77602;SDS011;66771;52.434;17.056;2023-02-12T10:23:56;29.30;;;12.00;;
77602;SDS011;66771;52.434;17.056;2023-02-12T10:26:48;28.00;;;13.70;;
77602;SDS011;66771;52.434;17.056;2023-02-12T10:29:22;27.30;;;11.80;;
77602;SDS011;66771;52.434;17.056;2023-02-12T10:31:54;20.90;;;11.20;;
77602;SDS011;66771;52.434;17.056;2023-02-12T10:34:34;30.40;;;12.30;;
77602;SDS011;66771;52.434;17.056;2023-02-12T10:37:04;22.20;;;11.30;;
77602;SDS011;66771;52.434;17.056;2023-02-12T10:39:47;29.70;;;13.10;;
77602;SDS011;66771;52.434;17.056;2023-02-12T10:44:51;27.10;;;12.40;;
77602;SDS011;66771;52.434;17.056;2023-02-12T10:47:19;21.60;;;12.80;;
77602;SDS011;66771;52.434;17.056;2023-02-12T10:49:57;27.60;;;13.80;;
77602;SDS011;66771;52.434;17.056;2023-02-12T10:57:54;30.00;;;14.20;;
77602;SDS011;66771;52.434;17.056;2023-02-12T11:00:25;27.40;;;12.50;;
77602;SDS011;66771;52.434;17.056;2023-02-12T11:03:08;26.10;;;12.80;;
77602;SDS011;66771;52.434;17.056;2023-02-12T11:05:46;29.90;;;14.40;;
77602;SDS011;66771;52.434;17.056;2023-02-12T11:08:35;28.80;;;13.00;;
77602;SDS011;66771;52.434;17.056;2023-02-12T11:13:43;31.80;;;13.90;;
77602;SDS011;66771;52.434;17.056;2023-02-12T11:16:14;28.50;;;14.00;;
77602;SDS011;66771;52.434;17.056;2023-02-12T11:18:57;26.40;;;13.60;;
77602;SDS011;66771;52.434;17.056;2023-02-12T11:21:25;28.50;;;14.90;;
77602;SDS011;66771;52.434;17.056;2023-02-12T11:23:52;32.60;;;16.60;;
77602;SDS011;66771;52.434;17.056;2023-02-12T11:26:32;30.80;;;16.70;;
77602;SDS011;66771;52.434;17.056;2023-02-12T11:29:00;33.90;;;16.60;;
77602;SDS011;66771;52.434;17.056;2023-02-12T11:31:42;30.40;;;16.70;;
77602;SDS011;66771;52.434;17.056;2023-02-12T11:34:26;36.90;;;16.80;;
77602;SDS011;66771;52.434;17.056;2023-02-12T11:36:56;29.60;;;16.30;;
77602;SDS011;66771;52.434;17.056;2023-02-12T11:39:33;28.30;;;15.30;;
77602;SDS011;66771;52.434;17.056;2023-02-12T11:42:14;23.70;;;11.70;;
77602;SDS011;66771;52.434;17.056;2023-02-12T11:44:47;24.10;;;12.90;;
77602;SDS011;66771;52.434;17.056;2023-02-12T11:47:22;22.20;;;12.30;;
77602;SDS011;66771;52.434;17.056;2023-02-12T11:52:26;23.40;;;10.20;;
77602;SDS011;66771;52.434;17.056;2023-02-12T11:54:57;20.60;;;9.00;;
77602;SDS011;66771;52.434;17.056;2023-02-12T12:05:43;16.30;;;9.10;;
77602;SDS011;66771;52.434;17.056;2023-02-12T12:13:39;23.60;;;9.90;;
77602;SDS011;66771;52.434;17.056;2023-02-12T12:16:40;21.80;;;10.50;;
77602;SDS011;66771;52.434;17.056;2023-02-12T12:19:55;17.70;;;8.50;;
77602;SDS011;66771;52.434;17.056;2023-02-12T12:25:15;44.60;;;23.30;;
77602;SDS011;66771;52.434;17.056;2023-02-12T12:33:42;18.80;;;9.70;;
77602;SDS011;66771;52.434;17.056;2023-02-12T12:39:45;21.00;;;10.50;;
77602;SDS011;66771;52.434;17.056;2023-02-12T12:56:14;19.60;;;9.80;;
77602;SDS011;66771;52.434;17.056;2023-02-12T13:02:01;27.20;;;11.40;;
77602;SDS011;66771;52.434;17.056;2023-02-12T13:11:01;22.90;;;11.30;;
77602;SDS011;66771;52.434;17.056;2023-02-12T13:13:42;23.90;;;10.70;;
77602;SDS011;66771;52.434;17.056;2023-02-12T13:19:27;18.40;;;9.10;;
77602;SDS011;66771;52.434;17.056;2023-02-12T13:22:04;19.80;;;8.90;;
77602;SDS011;66771;52.434;17.056;2023-02-12T13:27:31;23.70;;;9.00;;
77602;SDS011;66771;52.434;17.056;2023-02-12T13:30:04;18.80;;;9.00;;
77602;SDS011;66771;52.434;17.056;2023-02-12T13:32:43;19.30;;;9.30;;
77602;SDS011;66771;52.434;17.056;2023-02-12T13:35:24;29.80;;;10.30;;
77602;SDS011;66771;52.434;17.056;2023-02-12T13:37:55;24.10;;;10.80;;
77602;SDS011;66771;52.434;17.056;2023-02-12T13:40:27;22.90;;;11.30;;
77602;SDS011;66771;52.434;17.056;2023-02-12T13:45:44;27.20;;;10.90;;
77602;SDS011;66771;52.434;17.056;2023-02-12T13:56:51;27.20;;;10.60;;
77602;SDS011;66771;52.434;17.056;2023-02-12T14:01:58;30.10;;;12.10;;
77602;SDS011;66771;52.434;17.056;2023-02-12T14:04:31;29.20;;;12.40;;
77602;SDS011;66771;52.434;17.056;2023-02-12T14:07:09;31.80;;;11.20;;
77602;SDS011;66771;52.434;17.056;2023-02-12T14:09:42;19.10;;;9.60;;
77602;SDS011;66771;52.434;17.056;2023-02-12T14:12:34;24.30;;;9.20;;
77602;SDS011;66771;52.434;17.056;2023-02-12T14:15:08;21.00;;;9.70;;
77602;SDS011;66771;52.434;17.056;2023-02-12T14:17:54;20.90;;;9.10;;
77602;SDS011;66771;52.434;17.056;2023-02-12T14:20:28;23.30;;;10.10;;
77602;SDS011;66771;52.434;17.056;2023-02-12T14:25:58;21.60;;;10.20;;
77602;SDS011;66771;52.434;17.056;2023-02-12T14:28:54;27.60;;;13.00;;
77602;SDS011;66771;52.434;17.056;2023-02-12T14:39:03;25.60;;;12.20;;
77602;SDS011;66771;52.434;17.056;2023-02-12T14:47:04;23.20;;;11.50;;
77602;SDS011;66771;52.434;17.056;2023-02-12T14:49:41;27.70;;;10.20;;
77602;SDS011;66771;52.434;17.056;2023-02-12T14:52:16;25.80;;;10.80;;
77602;SDS011;66771;52.434;17.056;2023-02-12T14:54:51;25.20;;;11.30;;
77602;SDS011;66771;52.434;17.056;2023-02-12T14:57:47;16.60;;;8.60;;
77602;SDS011;66771;52.434;17.056;2023-02-12T15:02:57;16.40;;;8.10;;
77602;SDS011;66771;52.434;17.056;2023-02-12T15:05:29;25.40;;;8.40;;
77602;SDS011;66771;52.434;17.056;2023-02-12T15:08:07;21.10;;;8.60;;
77602;SDS011;66771;52.434;17.056;2023-02-12T15:13:42;19.50;;;7.90;;
77602;SDS011;66771;52.434;17.056;2023-02-12T15:16:21;15.10;;;7.30;;
77602;SDS011;66771;52.434;17.056;2023-02-12T15:21:53;15.80;;;7.00;;
77602;SDS011;66771;52.434;17.056;2023-02-12T15:24:34;14.80;;;6.70;;
77602;SDS011;66771;52.434;17.056;2023-02-12T15:27:03;14.60;;;6.60;;
77602;SDS011;66771;52.434;17.056;2023-02-12T15:29:36;12.40;;;6.20;;
77602;SDS011;66771;52.434;17.056;2023-02-12T15:32:23;11.20;;;6.30;;
77602;SDS011;66771;52.434;17.056;2023-02-12T15:34:53;11.40;;;4.80;;
77602;SDS011;66771;52.434;17.056;2023-02-12T15:37:24;13.70;;;5.80;;
77602;SDS011;66771;52.434;17.056;2023-02-12T15:39:57;9.60;;;5.00;;
77602;SDS011;66771;52.434;17.056;2023-02-12T15:42:32;11.60;;;4.60;;
77602;SDS011;66771;52.434;17.056;2023-02-12T15:47:41;11.80;;;5.40;;
77602;SDS011;66771;52.434;17.056;2023-02-12T15:50:14;12.60;;;6.30;;
77602;SDS011;66771;52.434;17.056;2023-02-12T15:52:42;10.20;;;5.00;;
77602;SDS011;66771;52.434;17.056;2023-02-12T15:55:19;12.60;;;5.40;;
77602;SDS011;66771;52.434;17.056;2023-02-12T15:57:54;14.70;;;5.60;;
77602;SDS011;66771;52.434;17.056;2023-02-12T16:00:28;9.80;;;5.00;;
77602;SDS011;66771;52.434;17.056;2023-02-12T16:03:03;17.10;;;6.40;;
77602;SDS011;66771;52.434;17.056;2023-02-12T16:05:30;20.10;;;7.20;;
77602;SDS011;66771;52.434;17.056;2023-02-12T16:07:59;16.60;;;6.30;;
77602;SDS011;66771;52.434;17.056;2023-02-12T16:10:26;14.40;;;7.70;;
77602;SDS011;66771;52.434;17.056;2023-02-12T16:12:54;18.20;;;9.10;;
77602;SDS011;66771;52.434;17.056;2023-02-12T16:15:30;16.30;;;9.10;;
77602;SDS011;66771;52.434;17.056;2023-02-12T16:18:03;18.60;;;7.90;;
77602;SDS011;66771;52.434;17.056;2023-02-12T16:20:39;17.00;;;7.70;;
77602;SDS011;66771;52.434;17.056;2023-02-12T16:23:11;16.10;;;6.40;;
77602;SDS011;66771;52.434;17.056;2023-02-12T16:25:39;14.90;;;6.40;;
77602;SDS011;66771;52.434;17.056;2023-02-12T16:28:19;15.70;;;5.30;;
77602;SDS011;66771;52.434;17.056;2023-02-12T16:31:05;14.10;;;6.30;;
77602;SDS011;66771;52.434;17.056;2023-02-12T16:38:46;18.00;;;6.60;;
77602;SDS011;66771;52.434;17.056;2023-02-12T16:43:47;15.40;;;6.40;;
77602;SDS011;66771;52.434;17.056;2023-02-12T16:46:16;15.40;;;5.80;;
77602;SDS011;66771;52.434;17.056;2023-02-12T16:48:51;16.00;;;5.60;;
77602;SDS011;66771;52.434;17.056;2023-02-12T16:51:22;14.00;;;5.50;;
77602;SDS011;66771;52.434;17.056;2023-02-12T16:53:56;15.70;;;6.00;;
77602;SDS011;66771;52.434;17.056;2023-02-12T16:56:26;14.20;;;7.30;;
77602;SDS011;66771;52.434;17.056;2023-02-12T16:58:58;15.30;;;6.40;;
77602;SDS011;66771;52.434;17.056;2023-02-12T17:01:33;14.50;;;6.60;;
77602;SDS011;66771;52.434;17.056;2023-02-12T17:04:04;15.00;;;6.40;;
77602;SDS011;66771;52.434;17.056;2023-02-12T17:06:40;19.50;;;7.00;;
77602;SDS011;66771;52.434;17.056;2023-02-12T17:09:10;17.60;;;7.30;;
77602;SDS011;66771;52.434;17.056;2023-02-12T17:11:38;15.40;;;7.20;;
77602;SDS011;66771;52.434;17.056;2023-02-12T17:14:18;18.50;;;8.30;;
77602;SDS011;66771;52.434;17.056;2023-02-12T17:16:46;16.40;;;9.10;;
77602;SDS011;66771;52.434;17.056;2023-02-12T17:19:14;18.70;;;9.00;;
77602;SDS011;66771;52.434;17.056;2023-02-12T17:21:47;19.10;;;9.10;;
77602;SDS011;66771;52.434;17.056;2023-02-12T17:24:20;16.10;;;8.00;;
77602;SDS011;66771;52.434;17.056;2023-02-12T17:26:50;18.00;;;8.20;;
77602;SDS011;66771;52.434;17.056;2023-02-12T17:29:28;21.00;;;8.00;;
77602;SDS011;66771;52.434;17.056;2023-02-12T17:32:06;21.60;;;8.80;;
77602;SDS011;66771;52.434;17.056;2023-02-12T17:34:35;21.90;;;9.50;;
77602;SDS011;66771;52.434;17.056;2023-02-12T17:37:03;30.20;;;11.00;;
77602;SDS011;66771;52.434;17.056;2023-02-12T17:39:32;31.30;;;14.20;;
77602;SDS011;66771;52.434;17.056;2023-02-12T17:41:59;25.30;;;12.60;;
77602;SDS011;66771;52.434;17.056;2023-02-12T17:44:27;25.50;;;11.00;;
77602;SDS011;66771;52.434;17.056;2023-02-12T17:46:55;22.60;;;11.50;;
77602;SDS011;66771;52.434;17.056;2023-02-12T17:49:22;29.30;;;12.30;;
77602;SDS011;66771;52.434;17.056;2023-02-12T17:51:48;26.90;;;10.90;;
77602;SDS011;66771;52.434;17.056;2023-02-12T17:54:17;30.70;;;16.00;;
77602;SDS011;66771;52.434;17.056;2023-02-12T17:56:44;77.00;;;36.50;;
77602;SDS011;66771;52.434;17.056;2023-02-12T17:59:11;39.00;;;18.00;;
77602;SDS011;66771;52.434;17.056;2023-02-12T18:01:38;19.30;;;10.20;;
77602;SDS011;66771;52.434;17.056;2023-02-12T18:04:06;27.70;;;10.60;;
77602;SDS011;66771;52.434;17.056;2023-02-12T18:06:33;31.70;;;11.20;;
77602;SDS011;66771;52.434;17.056;2023-02-12T18:09:00;22.00;;;10.00;;